South River, Canada
Current Conditions -  °F | °C
As of 9:00 AM on Thursday 30 Oct 2014 (Local Time) from CYYB Reporting Station
Overcast Overcast  
Wind Chill: 23°   Ceiling: 3500
Heat Index: 28°   Visibility: 15mi
Dew Point: 28°   Wind: 5mph
Humidity: 100%   Direction: 310°NW
Pressure: 30.03"   Gusts: NA
Location:  45.85°N, 79.37°W
Report Text: CYYB 301300Z 31004KT 15SM FEW011 BKN035 OVC210 M02/M02 A3003 RMK SC2SC5CI1 SLP185
Loading
Personal Weather Stations






























Interactive Weather Map
Tropical Storm Tracking
New forecast layout! Learn more

10-Day Weather Forecast

Advertisements
Track Severe Weather on mobile